Time;durP1;ratioP1;P1;durP2;ratioP2;P2;SDS_P1;SDS_P2;PMS_P1;PMS_P2;Temp;Humidity;BMP_temperature;BMP_pressure;BME280_temperature;BME280_humidity;BME280_pressure;Samples;Min_cycle;Max_cycle;Signal;HPM_P1;HPM_P2
2023/09/25 00:00:35;;;;;;;8.00;6.67;;;12.30;99.90;;;;;;5075293;28;20417;-72
2023/09/25 00:03:03;;;;;;;6.67;5.97;;;12.30;99.90;;;;;;5075348;28;20269;-72
2023/09/25 00:05:30;;;;;;;7.63;5.80;;;12.30;99.90;;;;;;5075045;28;20420;-71
2023/09/25 00:07:56;;;;;;;7.97;6.40;;;12.30;99.90;;;;;;5075045;28;20493;-70
2023/09/25 00:10:22;;;;;;;7.47;6.20;;;12.20;99.90;;;;;;5075157;28;20476;-70
2023/09/25 00:12:48;;;;;;;6.87;6.17;;;12.30;99.90;;;;;;5075387;28;20782;-71
2023/09/25 00:15:14;;;;;;;7.53;6.70;;;12.20;99.90;;;;;;5075164;28;20416;-71
2023/09/25 00:17:40;;;;;;;6.67;5.50;;;12.20;99.90;;;;;;5074723;28;20436;-71
2023/09/25 00:20:10;;;;;;;8.07;6.30;;;12.10;99.90;;;;;;5074649;28;20418;-71
2023/09/25 00:22:37;;;;;;;7.10;6.20;;;12.10;99.90;;;;;;5074547;28;20412;-70
2023/09/25 00:25:03;;;;;;;6.70;5.90;;;12.10;99.90;;;;;;5074498;28;20408;-70
2023/09/25 00:27:31;;;;;;;6.37;5.80;;;12.10;99.90;;;;;;5074473;28;20903;-70
2023/09/25 00:29:57;;;;;;;7.63;6.83;;;12.00;99.90;;;;;;5074637;28;20420;-71
2023/09/25 00:32:23;;;;;;;7.07;6.30;;;12.10;99.90;;;;;;5074393;28;21011;-71
2023/09/25 00:34:49;;;;;;;8.20;6.27;;;12.10;99.90;;;;;;5074352;28;20421;-70
2023/09/25 00:37:14;;;;;;;7.20;6.50;;;12.00;99.90;;;;;;5074316;28;20552;-71
2023/09/25 00:39:42;;;;;;;7.80;7.00;;;12.00;99.90;;;;;;5074621;28;20257;-70
2023/09/25 00:42:08;;;;;;;6.40;5.40;;;12.00;99.90;;;;;;5074399;28;20195;-71
2023/09/25 00:44:33;;;;;;;8.53;5.73;;;11.90;99.90;;;;;;5073973;28;20484;-71
2023/09/25 00:46:59;;;;;;;7.57;6.63;;;12.00;99.90;;;;;;5074085;28;20486;-71
2023/09/25 00:49:26;;;;;;;7.73;6.87;;;11.90;99.90;;;;;;5074403;28;20180;-71
2023/09/25 00:51:53;;;;;;;7.07;6.37;;;11.90;99.90;;;;;;5074404;28;20484;-70
2023/09/25 00:54:18;;;;;;;6.33;5.73;;;11.90;99.90;;;;;;5074541;28;20412;-71
2023/09/25 00:56:46;;;;;;;7.40;6.63;;;11.90;99.90;;;;;;5073626;28;20504;-72
2023/09/25 00:59:12;;;;;;;8.30;7.50;;;11.90;99.90;;;;;;5074813;28;20913;-71
2023/09/25 01:01:38;;;;;;;7.13;6.20;;;11.90;99.90;;;;;;5075033;28;20452;-71
2023/09/25 01:04:04;;;;;;;8.77;6.73;;;11.80;99.90;;;;;;5074020;28;20558;-70
2023/09/25 01:06:29;;;;;;;9.70;7.13;;;11.80;99.90;;;;;;5073950;28;20327;-71
2023/09/25 01:08:55;;;;;;;7.87;7.07;;;11.80;99.90;;;;;;5074459;28;20940;-72
2023/09/25 01:11:22;;;;;;;7.67;6.90;;;11.80;99.90;;;;;;5073837;28;20663;-71
2023/09/25 01:13:48;;;;;;;7.30;6.53;;;11.70;99.90;;;;;;5073871;28;20424;-71
2023/09/25 01:16:13;;;;;;;6.87;6.10;;;11.70;99.90;;;;;;5073619;28;20419;-70
2023/09/25 01:18:39;;;;;;;7.87;6.77;;;11.70;99.90;;;;;;5073578;28;20197;-71
2023/09/25 01:21:05;;;;;;;8.13;6.50;;;11.70;99.90;;;;;;5073460;28;20178;-70
2023/09/25 01:23:31;;;;;;;7.97;7.20;;;11.70;99.90;;;;;;5071393;28;20194;-70
2023/09/25 01:25:57;;;;;;;8.03;6.53;;;11.70;99.90;;;;;;5073470;28;20166;-70
2023/09/25 01:28:22;;;;;;;8.07;7.27;;;11.70;99.90;;;;;;5073417;28;20632;-71
2023/09/25 01:30:49;;;;;;;8.73;6.90;;;11.70;99.90;;;;;;5073469;28;20413;-70
2023/09/25 01:33:15;;;;;;;7.77;6.43;;;11.70;99.90;;;;;;5073371;28;20174;-71
2023/09/25 01:35:41;;;;;;;7.17;6.37;;;11.70;99.90;;;;;;5073400;28;20416;-71
2023/09/25 01:38:08;;;;;;;7.10;6.40;;;11.60;99.90;;;;;;5073227;28;20436;-71
2023/09/25 01:40:33;;;;;;;6.90;6.30;;;11.60;99.90;;;;;;5073323;28;20257;-71
2023/09/25 01:42:59;;;;;;;9.13;6.20;;;11.60;99.90;;;;;;5073142;28;20560;-71
2023/09/25 01:45:25;;;;;;;9.17;6.97;;;11.60;99.90;;;;;;5072924;28;20510;-71
2023/09/25 01:47:52;;;;;;;8.30;7.03;;;11.50;99.90;;;;;;5072958;28;20208;-71
2023/09/25 01:50:18;;;;;;;8.60;7.17;;;11.50;99.90;;;;;;5072973;28;20166;-71
2023/09/25 01:52:46;;;;;;;7.10;6.30;;;11.50;99.90;;;;;;5072849;28;20489;-71
2023/09/25 01:55:12;;;;;;;11.40;7.60;;;11.50;99.90;;;;;;5072937;28;20500;-71
2023/09/25 01:57:37;;;;;;;9.57;7.10;;;11.40;99.90;;;;;;5073031;28;20519;-71
2023/09/25 02:00:09;;;;;;;9.03;7.13;;;11.40;99.90;;;;;;5054684;28;20178;-71
2023/09/25 02:02:36;;;;;;;8.23;6.60;;;11.40;99.90;;;;;;5072754;28;20170;-71
2023/09/25 02:05:02;;;;;;;9.27;7.33;;;11.40;99.90;;;;;;5072730;28;20452;-71
2023/09/25 02:07:27;;;;;;;9.13;7.60;;;11.40;99.90;;;;;;5071740;28;20433;-71
2023/09/25 02:09:53;;;;;;;12.30;8.13;;;11.40;99.90;;;;;;5072509;28;20185;-70
2023/09/25 02:12:18;;;;;;;7.77;7.00;;;11.40;99.90;;;;;;5072684;28;20173;-70
2023/09/25 02:14:44;;;;;;;9.37;8.37;;;11.40;99.90;;;;;;5072630;28;20182;-70
2023/09/25 02:17:10;;;;;;;8.17;7.37;;;11.40;99.90;;;;;;5072513;28;20190;-70
2023/09/25 02:19:36;;;;;;;10.53;8.70;;;11.40;99.90;;;;;;5072625;28;20174;-70
2023/09/25 02:22:06;;;;;;;8.80;6.97;;;11.40;99.90;;;;;;5072515;28;20224;-70
2023/09/25 02:24:35;;;;;;;7.60;6.80;;;11.40;99.90;;;;;;5072303;28;20543;-70
2023/09/25 02:27:01;;;;;;;10.20;7.60;;;11.40;99.90;;;;;;5072309;28;20433;-70
2023/09/25 02:29:26;;;;;;;8.83;8.03;;;11.30;99.90;;;;;;5072055;28;20490;-71
2023/09/25 02:31:52;;;;;;;8.50;7.67;;;11.30;99.90;;;;;;5072027;28;20162;-70
2023/09/25 02:34:17;;;;;;;8.53;7.63;;;11.30;99.90;;;;;;5072100;28;20174;-71
2023/09/25 02:36:43;;;;;;;9.73;7.83;;;11.30;99.90;;;;;;5071880;28;20194;-69
2023/09/25 02:39:13;;;;;;;12.03;7.97;;;11.30;99.90;;;;;;5072068;28;20205;-70
2023/09/25 02:41:39;;;;;;;8.53;7.70;;;11.30;99.90;;;;;;5071819;28;20170;-70
2023/09/25 02:44:05;;;;;;;8.20;7.40;;;11.30;99.90;;;;;;5071786;28;20452;-70
2023/09/25 02:46:30;;;;;;;9.43;7.67;;;11.30;99.90;;;;;;5071560;28;20790;-70
2023/09/25 02:48:56;;;;;;;9.40;7.37;;;11.30;99.90;;;;;;5071969;28;20474;-70
2023/09/25 02:51:22;;;;;;;8.33;7.50;;;11.30;99.90;;;;;;5071819;28;20181;-70
2023/09/25 02:53:47;;;;;;;8.30;7.53;;;11.20;99.90;;;;;;5072032;28;20257;-71
2023/09/25 02:56:13;;;;;;;8.10;6.83;;;11.20;99.90;;;;;;5072688;28;20512;-71
2023/09/25 02:58:38;;;;;;;9.03;7.90;;;11.20;99.90;;;;;;5072448;28;20216;-71
2023/09/25 03:01:04;;;;;;;10.60;8.00;;;11.20;99.90;;;;;;5072435;28;20166;-70
2023/09/25 03:03:30;;;;;;;8.33;7.50;;;11.10;99.90;;;;;;5054418;28;20612;-70
2023/09/25 03:05:55;;;;;;;8.13;7.33;;;11.10;99.90;;;;;;5073924;28;20163;-71
2023/09/25 03:08:21;;;;;;;11.40;7.97;;;11.10;99.90;;;;;;5074619;28;20190;-71
2023/09/25 03:10:47;;;;;;;9.53;7.83;;;11.10;99.90;;;;;;5074033;28;20224;-71
2023/09/25 03:13:13;;;;;;;8.87;8.00;;;11.10;99.90;;;;;;5073702;28;20807;-71
2023/09/25 03:15:38;;;;;;;10.67;7.90;;;11.10;99.90;;;;;;5074514;28;20253;-71
2023/09/25 03:18:04;;;;;;;8.17;7.27;;;11.10;99.90;;;;;;5073661;28;20648;-71
2023/09/25 03:20:30;;;;;;;9.30;7.67;;;11.00;99.90;;;;;;5074776;28;20663;-71
2023/09/25 03:22:56;;;;;;;9.33;8.33;;;11.10;99.90;;;;;;5073621;28;20415;-71
2023/09/25 03:25:22;;;;;;;9.47;8.07;;;11.00;99.90;;;;;;5073019;28;20261;-71
2023/09/25 03:27:49;;;;;;;16.73;8.33;;;11.00;99.90;;;;;;5071801;28;20439;-70
2023/09/25 03:30:15;;;;;;;8.47;7.67;;;11.00;99.90;;;;;;5071480;28;20423;-71
2023/09/25 03:32:42;;;;;;;8.67;7.83;;;11.00;99.90;;;;;;5071435;28;20413;-71
2023/09/25 03:35:08;;;;;;;8.77;7.87;;;11.00;99.90;;;;;;5071726;28;20415;-71
2023/09/25 03:37:34;;;;;;;10.30;8.73;;;11.00;99.90;;;;;;5071467;28;20429;-70
2023/09/25 03:39:59;;;;;;;10.40;7.50;;;11.00;99.90;;;;;;5071470;28;20807;-71
2023/09/25 03:42:25;;;;;;;8.73;7.83;;;11.00;99.90;;;;;;5053305;28;20253;-69
2023/09/25 03:44:51;;;;;;;8.40;7.47;;;10.90;99.90;;;;;;5071164;28;20202;-70
2023/09/25 03:47:18;;;;;;;12.43;8.23;;;10.90;99.90;;;;;;5093904;22;20334;-71
2023/09/25 03:49:44;;;;;;;12.43;8.93;;;10.90;99.90;;;;;;5080845;28;20404;-69
2023/09/25 03:52:10;;;;;;;9.97;9.07;;;10.90;99.90;;;;;;5083520;28;20416;-73
2023/09/25 03:54:36;;;;;;;13.20;8.53;;;10.90;99.90;;;;;;5071064;28;20408;-69
2023/09/25 03:57:01;;;;;;;8.33;7.23;;;10.80;99.90;;;;;;5089939;28;20300;-72
2023/09/25 03:59:27;;;;;;;10.77;8.63;;;10.80;99.90;;;;;;5090075;28;20181;-71
2023/09/25 04:01:52;;;;;;;10.17;8.77;;;10.80;99.90;;;;;;5078438;28;20176;-68
2023/09/25 04:04:18;;;;;;;9.77;8.77;;;10.80;99.90;;;;;;5085517;28;20650;-70
2023/09/25 04:06:44;;;;;;;9.40;7.23;;;10.80;99.90;;;;;;5070630;28;20633;-71
2023/09/25 04:09:10;;;;;;;11.00;8.30;;;10.80;99.90;;;;;;5070016;28;20247;-70
2023/09/25 04:11:35;;;;;;;13.07;10.43;;;10.80;99.90;;;;;;5069754;28;20356;-69
2023/09/25 04:14:02;;;;;;;11.20;8.23;;;10.80;99.90;;;;;;5069478;28;20542;-68
2023/09/25 04:16:28;;;;;;;9.80;8.63;;;10.80;99.90;;;;;;5051269;28;20265;-71
2023/09/25 04:18:54;;;;;;;9.93;8.27;;;10.70;99.90;;;;;;5069209;28;20471;-72
2023/09/25 04:21:21;;;;;;;10.57;8.90;;;10.70;99.90;;;;;;5068894;28;20185;-71
2023/09/25 04:23:47;;;;;;;9.73;8.63;;;10.80;99.90;;;;;;5080181;28;20935;-70
2023/09/25 04:26:13;;;;;;;10.43;9.33;;;10.70;99.90;;;;;;5089546;28;20786;-69
2023/09/25 04:28:42;;;;;;;9.53;8.63;;;10.70;99.90;;;;;;5089469;28;20432;-69
2023/09/25 04:31:09;;;;;;;11.43;7.63;;;10.70;99.90;;;;;;5090495;28;20445;-69
2023/09/25 04:33:36;;;;;;;8.13;7.33;;;10.70;99.90;;;;;;5092764;28;20435;-69
2023/09/25 04:36:02;;;;;;;10.00;7.63;;;10.70;99.90;;;;;;5092839;28;20755;-68
2023/09/25 04:38:29;;;;;;;12.00;9.13;;;10.70;99.90;;;;;;5092796;28;20523;-69
2023/09/25 04:40:57;;;;;;;9.37;7.93;;;10.70;99.90;;;;;;5094978;28;20442;-69
2023/09/25 04:43:23;;;;;;;10.43;9.33;;;10.70;99.90;;;;;;5089555;28;20467;-70
2023/09/25 04:45:52;;;;;;;10.40;8.43;;;10.70;99.90;;;;;;5078450;28;20765;-70
2023/09/25 04:48:21;;;;;;;13.17;10.60;;;10.70;99.90;;;;;;5039439;28;1155053;-70
2023/09/25 04:50:48;;;;;;;8.80;7.90;;;10.70;99.90;;;;;;5081244;28;20257;-70
2023/09/25 04:53:14;;;;;;;10.80;9.07;;;10.70;99.90;;;;;;5086213;28;20442;-71
2023/09/25 04:55:40;;;;;;;12.27;9.87;;;10.80;99.90;;;;;;5070245;28;20897;-70
2023/09/25 04:58:06;;;;;;;10.97;8.93;;;10.70;99.90;;;;;;5074072;28;20449;-71
2023/09/25 05:00:32;;;;;;;10.07;8.33;;;10.70;99.90;;;;;;5094422;28;20509;-71
2023/09/25 05:02:59;;;;;;;9.73;8.70;;;10.70;99.90;;;;;;5079630;28;20421;-71
2023/09/25 05:05:25;;;;;;;11.87;9.70;;;10.80;99.90;;;;;;5075472;28;20239;-72
2023/09/25 05:07:52;;;;;;;12.13;9.53;;;10.80;99.90;;;;;;5084292;28;20527;-71
2023/09/25 05:10:22;;;;;;;14.30;10.17;;;10.80;99.90;;;;;;5073747;28;20483;-69
2023/09/25 05:12:48;;;;;;;11.20;9.60;;;10.80;99.90;;;;;;5092197;28;20430;-69
2023/09/25 05:15:15;;;;;;;10.00;9.00;;;10.80;99.90;;;;;;5093506;28;20424;-70
2023/09/25 05:17:41;;;;;;;10.63;8.07;;;10.80;99.90;;;;;;5093204;28;20442;-69
2023/09/25 05:20:15;;;;;;;10.43;8.90;;;10.80;99.90;;;;;;5092936;28;20526;-70
2023/09/25 05:22:45;;;;;;;12.17;8.60;;;10.80;99.90;;;;;;5093085;28;20411;-71
2023/09/25 05:25:12;;;;;;;9.90;8.90;;;10.80;99.90;;;;;;5093053;28;20831;-71
2023/09/25 05:27:40;;;;;;;13.53;9.37;;;10.80;99.90;;;;;;5085959;28;20431;-69
2023/09/25 05:30:09;;;;;;;11.80;9.90;;;10.80;99.90;;;;;;5072801;28;20456;-70
2023/09/25 05:32:36;;;;;;;9.70;8.70;;;10.80;99.90;;;;;;5072384;28;20693;-69
2023/09/25 05:35:02;;;;;;;12.77;9.70;;;10.90;99.90;;;;;;5085147;28;20757;-70
2023/09/25 05:37:27;;;;;;;12.50;9.67;;;11.00;99.90;;;;;;5093312;28;20446;-69
2023/09/25 05:39:53;;;;;;;11.40;9.03;;;11.00;99.90;;;;;;5092963;28;20632;-69
2023/09/25 05:42:19;;;;;;;10.17;9.20;;;11.00;99.90;;;;;;5073493;28;20178;-69
2023/09/25 05:44:44;;;;;;;14.50;9.37;;;11.00;99.90;;;;;;5092840;28;20212;-69
2023/09/25 05:47:10;;;;;;;13.40;10.40;;;11.10;99.90;;;;;;5074179;28;20222;-70
2023/09/25 05:49:36;;;;;;;14.30;10.47;;;11.20;99.90;;;;;;5092822;28;20278;-71
2023/09/25 05:52:01;;;;;;;12.27;9.70;;;11.30;99.90;;;;;;5092698;28;20170;-70
2023/09/25 05:54:27;;;;;;;9.30;8.20;;;11.40;99.90;;;;;;5064066;28;20182;-70
2023/09/25 05:56:53;;;;;;;10.10;8.27;;;11.80;99.90;;;;;;5068545;28;20231;-70
2023/09/25 05:59:22;;;;;;;9.87;8.07;;;12.30;99.90;;;;;;5090743;28;20439;-70
2023/09/25 06:01:47;;;;;;;12.20;8.87;;;12.70;99.90;;;;;;5065937;28;20225;-70
2023/09/25 06:04:14;;;;;;;7.37;6.40;;;13.00;99.90;;;;;;5070283;28;20559;-70
2023/09/25 06:06:39;;;;;;;6.67;6.00;;;13.00;99.90;;;;;;5080523;28;20252;-70
2023/09/25 06:09:08;;;;;;;7.20;5.67;;;13.30;99.90;;;;;;5071991;28;20524;-70
2023/09/25 06:11:37;;;;;;;6.97;6.10;;;13.40;99.90;;;;;;5080328;28;20173;-71
2023/09/25 06:14:02;;;;;;;7.40;6.60;;;13.70;99.90;;;;;;5072245;28;20887;-71
2023/09/25 06:16:28;;;;;;;9.37;7.37;;;14.10;99.90;;;;;;5071607;28;20421;-72
2023/09/25 06:18:54;;;;;;;6.70;5.20;;;14.90;99.90;;;;;;5071466;28;20518;-71
2023/09/25 06:21:19;;;;;;;7.13;6.33;;;15.00;99.90;;;;;;5071663;28;20516;-73
2023/09/25 06:23:47;;;;;;;6.67;5.43;;;15.30;99.90;;;;;;5071612;28;20201;-73
2023/09/25 06:26:12;;;;;;;6.17;5.67;;;14.80;99.90;;;;;;5074643;28;20173;-72
2023/09/25 06:28:38;;;;;;;5.40;4.90;;;14.90;99.90;;;;;;5084010;28;20959;-73
2023/09/25 06:31:04;;;;;;;7.63;5.07;;;15.40;99.90;;;;;;5094544;28;20423;-71
2023/09/25 06:33:29;;;;;;;5.30;4.60;;;16.10;99.90;;;;;;5094062;28;20539;-70
2023/09/25 06:35:55;;;;;;;7.83;5.77;;;16.50;99.90;;;;;;5091941;28;20173;-70
2023/09/25 06:38:22;;;;;;;6.43;5.83;;;16.80;99.90;;;;;;5091506;28;20198;-69
2023/09/25 06:40:47;;;;;;;4.77;4.33;;;15.70;99.90;;;;;;5081048;28;20482;-71
2023/09/25 06:43:13;;;;;;;6.77;5.63;;;15.80;99.90;;;;;;5070925;28;20463;-71
2023/09/25 06:45:40;;;;;;;6.37;5.57;;;15.60;99.90;;;;;;5070936;28;20185;-70
2023/09/25 06:48:06;;;;;;;6.50;5.07;;;16.40;99.90;;;;;;5070794;28;20458;-71
2023/09/25 06:50:31;;;;;;;5.70;5.17;;;17.20;99.90;;;;;;5071010;28;20786;-69
2023/09/25 06:52:58;;;;;;;6.47;4.80;;;16.90;99.90;;;;;;5070766;28;20418;-71
2023/09/25 06:55:23;;;;;;;6.90;4.70;;;16.30;99.90;;;;;;5070313;28;20539;-69
2023/09/25 06:57:49;;;;;;;4.73;4.20;;;16.80;99.90;;;;;;5070727;28;20442;-71
2023/09/25 07:00:15;;;;;;;5.87;4.50;;;17.00;99.90;;;;;;5070601;28;20178;-72
2023/09/25 07:02:42;;;;;;;6.37;5.73;;;17.20;99.90;;;;;;5070424;28;20415;-71
2023/09/25 07:05:09;;;;;;;5.40;4.90;;;16.90;99.90;;;;;;5070580;28;20789;-69
2023/09/25 07:07:36;;;;;;;6.37;4.57;;;17.70;99.90;;;;;;5078860;28;20431;-69
2023/09/25 07:10:03;;;;;;;4.93;4.53;;;18.80;99.90;;;;;;5090879;28;20439;-69
2023/09/25 07:12:30;;;;;;;4.97;4.47;;;18.90;99.90;;;;;;5090815;28;20415;-69
2023/09/25 07:14:56;;;;;;;6.63;4.10;;;17.80;99.90;;;;;;5090729;28;20901;-70
2023/09/25 07:17:26;;;;;;;6.43;4.63;;;17.90;99.90;;;;;;5090788;28;20442;-69
2023/09/25 07:19:52;;;;;;;5.30;4.60;;;17.80;99.90;;;;;;5090658;28;20180;-70
2023/09/25 07:22:20;;;;;;;6.20;4.80;;;19.50;99.90;;;;;;5084633;28;20427;-70
2023/09/25 07:24:45;;;;;;;6.30;4.80;;;19.30;99.90;;;;;;5069970;28;20898;-73
2023/09/25 07:27:11;;;;;;;5.20;4.70;;;19.70;99.90;;;;;;5070295;28;20481;-71
2023/09/25 07:29:37;;;;;;;5.53;4.77;;;18.80;99.90;;;;;;5070302;28;20172;-70
2023/09/25 07:32:03;;;;;;;5.27;4.30;;;18.80;99.90;;;;;;5073813;28;20182;-71
2023/09/25 07:34:29;;;;;;;5.17;4.00;;;18.80;99.90;;;;;;5090581;28;20179;-71
2023/09/25 07:36:55;;;;;;;5.63;4.40;;;18.70;99.90;;;;;;5091578;28;20429;-70
2023/09/25 07:39:22;;;;;;;4.10;3.80;;;19.20;99.90;;;;;;5090283;28;20214;-69
2023/09/25 07:41:51;;;;;;;4.30;3.90;;;18.70;99.90;;;;;;5090129;28;20420;-70
2023/09/25 07:44:17;;;;;;;6.77;4.30;;;20.30;99.90;;;;;;5090058;28;20468;-69
2023/09/25 07:46:47;;;;;;;4.97;4.00;;;20.10;99.90;;;;;;5090087;28;20423;-69
2023/09/25 07:49:13;;;;;;;4.40;4.00;;;19.90;99.90;;;;;;5085323;28;20214;-69
2023/09/25 07:51:39;;;;;;;9.47;4.10;;;19.70;99.90;;;;;;5069745;28;20929;-70
2023/09/25 07:54:05;;;;;;;5.00;4.50;;;20.60;99.90;;;;;;5070401;28;20424;-70
2023/09/25 07:56:30;;;;;;;6.27;4.00;;;20.00;99.90;;;;;;5069674;28;20196;-70
2023/09/25 07:58:56;;;;;;;4.63;4.17;;;20.10;99.90;;;;;;5069693;28;20208;-71
2023/09/25 08:01:22;;;;;;;4.33;3.90;;;20.00;99.90;;;;;;5066500;28;20265;-69
2023/09/25 08:03:51;;;;;;;6.30;4.63;;;19.90;99.90;;;;;;5067420;28;20206;-70
2023/09/25 08:06:19;;;;;;;5.30;4.43;;;20.30;99.90;;;;;;5071268;28;20867;-70
2023/09/25 08:08:45;;;;;;;5.67;3.60;;;20.60;99.90;;;;;;5073430;28;20492;-70
2023/09/25 08:11:14;;;;;;;4.93;4.30;;;20.00;99.90;;;;;;5055412;28;20941;-71
2023/09/25 08:13:40;;;;;;;4.50;3.37;;;19.70;99.90;;;;;;5073721;28;20426;-71
2023/09/25 08:16:06;;;;;;;4.50;3.30;;;19.70;99.90;;;;;;5073635;28;21014;-71
2023/09/25 08:18:32;;;;;;;5.50;4.00;;;19.10;99.90;;;;;;5073650;28;20205;-71
2023/09/25 08:20:57;;;;;;;4.23;3.67;;;20.00;99.90;;;;;;5073519;28;20624;-70
2023/09/25 08:23:23;;;;;;;4.13;3.70;;;20.10;99.90;;;;;;5073008;28;20204;-69
2023/09/25 08:25:49;;;;;;;4.20;3.77;;;20.90;99.90;;;;;;5073117;28;20702;-70
2023/09/25 08:28:15;;;;;;;4.00;3.60;;;21.00;99.90;;;;;;5073304;28;20225;-69
2023/09/25 08:30:40;;;;;;;4.00;3.63;;;21.20;99.90;;;;;;5073052;28;20277;-68
2023/09/25 08:33:07;;;;;;;3.90;3.60;;;21.90;99.90;;;;;;5081571;28;20205;-69
2023/09/25 08:35:33;;;;;;;4.23;3.83;;;20.90;99.90;;;;;;5073266;28;20174;-69
2023/09/25 08:37:59;;;;;;;4.70;3.00;;;21.40;99.90;;;;;;5072851;28;20490;-70
2023/09/25 08:40:25;;;;;;;3.80;3.13;;;21.50;99.90;;;;;;5072787;28;20920;-71
2023/09/25 08:42:53;;;;;;;3.57;3.10;;;22.30;99.90;;;;;;5073144;28;20464;-69
2023/09/25 08:45:21;;;;;;;4.67;3.90;;;22.50;99.90;;;;;;5072875;28;20218;-71
2023/09/25 08:47:47;;;;;;;3.13;2.77;;;23.10;99.90;;;;;;5072405;28;20725;-69
2023/09/25 08:50:12;;;;;;;3.10;2.90;;;22.50;99.90;;;;;;5072891;28;20412;-68
2023/09/25 08:52:38;;;;;;;4.53;3.60;;;21.50;99.90;;;;;;5080030;28;20204;-69
2023/09/25 08:55:05;;;;;;;3.30;3.00;;;22.10;99.90;;;;;;5074435;28;20177;-69
2023/09/25 08:57:32;;;;;;;5.17;3.50;;;23.00;99.90;;;;;;5077641;28;20496;-69
2023/09/25 09:00:11;;;;;;;4.13;3.30;;;22.60;99.90;;;;;;5072480;28;20798;-71
2023/09/25 09:02:43;;;;;;;3.43;3.10;;;22.20;99.90;;;;;;5080013;28;20431;-69
2023/09/25 09:05:11;;;;;;;3.93;3.53;;;22.60;99.90;;;;;;5093924;28;20462;-70
2023/09/25 09:07:38;;;;;;;3.20;2.90;;;22.40;99.90;;;;;;5095220;28;20442;-71
2023/09/25 09:10:04;;;;;;;4.80;3.03;;;22.40;99.90;;;;;;5073765;28;20426;-69
2023/09/25 09:12:30;;;;;;;4.17;2.90;;;22.10;99.90;;;;;;5072586;28;20470;-70
2023/09/25 09:14:55;;;;;;;8.43;3.43;;;22.30;99.90;;;;;;5072343;28;20424;-69
2023/09/25 09:17:27;;;;;;;3.27;3.00;;;22.10;99.90;;;;;;5071974;28;20889;-69
2023/09/25 09:19:52;;;;;;;3.97;3.20;;;22.20;99.90;;;;;;5072333;28;20548;-74
2023/09/25 09:22:19;;;;;;;5.60;2.60;;;21.10;99.90;;;;;;5072855;28;20417;-68
2023/09/25 09:24:45;;;;;;;5.13;2.83;;;21.80;99.90;;;;;;5089517;28;20201;-72
2023/09/25 09:27:11;;;;;;;3.80;3.50;;;22.10;99.90;;;;;;5080344;28;20465;-73
2023/09/25 09:29:45;;;;;;;7.30;3.40;;;21.90;99.90;;;;;;5072573;28;20408;-70
2023/09/25 09:32:11;;;;;;;3.50;3.20;;;21.80;99.90;;;;;;5062178;28;20412;-74
2023/09/25 09:34:40;;;;;;;4.70;3.33;;;21.10;99.90;;;;;;5072391;28;20446;-70
2023/09/25 09:37:09;;;;;;;4.40;4.00;;;21.90;99.90;;;;;;5071782;28;20420;-74
2023/09/25 09:39:36;;;;;;;3.77;3.47;;;22.20;99.90;;;;;;5078636;28;20414;-71
2023/09/25 09:42:05;;;;;;;3.70;3.40;;;22.30;99.90;;;;;;5092195;28;20426;-69
2023/09/25 09:44:32;;;;;;;3.93;3.60;;;21.80;99.90;;;;;;5091833;28;20827;-71
2023/09/25 09:47:02;;;;;;;6.10;3.17;;;21.60;99.90;;;;;;5073384;28;20420;-69
2023/09/25 09:49:30;;;;;;;6.17;3.40;;;21.40;99.90;;;;;;5099766;22;20577;-69
2023/09/25 09:51:56;;;;;;;3.90;3.60;;;21.60;99.90;;;;;;5091620;28;20829;-70
2023/09/25 09:54:23;;;;;;;4.10;3.47;;;21.50;99.90;;;;;;5093534;28;20498;-68
2023/09/25 09:56:49;;;;;;;4.40;3.70;;;21.20;99.90;;;;;;5093323;28;20446;-69
2023/09/25 09:59:16;;;;;;;6.43;5.40;;;21.00;99.90;;;;;;5093806;28;20425;-70
2023/09/25 10:01:47;;;;;;;5.80;4.90;;;21.00;99.90;;;;;;5087194;28;20189;-69
2023/09/25 10:04:14;;;;;;;5.43;4.33;;;21.00;99.90;;;;;;5065407;28;20459;-69
2023/09/25 10:07:00;;;;;;;6.03;4.50;;;20.90;99.90;;;;;;5073084;28;20419;-69
2023/09/25 10:09:26;;;;;;;13.23;8.67;;;21.00;99.90;;;;;;5073464;28;20527;-68
2023/09/25 10:11:56;;;;;;;6.53;5.90;;;20.60;99.90;;;;;;5072798;28;20442;-69
2023/09/25 10:14:23;;;;;;;4.73;3.57;;;20.80;99.90;;;;;;5072970;28;20502;-69
2023/09/25 10:17:06;;;;;;;5.70;5.13;;;20.50;99.90;;;;;;5072967;28;20414;-69
2023/09/25 10:19:40;;;;;;;6.00;4.67;;;20.30;99.90;;;;;;5072697;28;20464;-71
2023/09/25 10:22:20;;;;;;;5.20;4.70;;;20.40;99.90;;;;;;5072601;28;20413;-69
2023/09/25 10:24:49;;;;;;;3.10;2.90;;;20.50;99.90;;;;;;5072940;28;20453;-68
2023/09/25 10:27:16;;;;;;;5.83;3.13;;;20.40;99.90;;;;;;5055160;28;20416;-68
2023/09/25 10:30:05;;;;;;;4.80;4.20;;;20.30;99.90;;;;;;5072284;28;20488;-70
2023/09/25 10:32:32;;;;;;;10.70;8.30;;;20.30;99.90;;;;;;5072478;28;20399;-72
2023/09/25 10:35:18;;;;;;;4.20;3.13;;;20.30;99.90;;;;;;5072726;28;20417;-69
2023/09/25 10:38:06;;;;;;;4.80;4.40;;;20.20;99.90;;;;;;5072678;28;20545;-71
2023/09/25 10:40:32;;;;;;;3.60;3.30;;;20.50;99.90;;;;;;5072989;28;20438;-68
2023/09/25 10:42:58;;;;;;;3.77;3.20;;;20.70;99.90;;;;;;5072197;28;20456;-69
2023/09/25 10:45:24;;;;;;;4.30;3.43;;;20.50;99.90;;;;;;5072420;28;20179;-69
2023/09/25 10:47:50;;;;;;;3.57;3.27;;;20.70;99.90;;;;;;5072078;28;20519;-70
2023/09/25 10:50:15;;;;;;;3.50;3.20;;;20.80;99.90;;;;;;5072588;28;20787;-70
2023/09/25 10:52:41;;;;;;;3.83;3.53;;;20.60;99.90;;;;;;5072311;28;20205;-70
2023/09/25 10:55:07;;;;;;;3.73;3.43;;;20.60;99.90;;;;;;5072912;28;20173;-70
2023/09/25 10:57:33;;;;;;;2.73;2.53;;;20.50;99.90;;;;;;5072142;28;20170;-72
2023/09/25 11:00:08;;;;;;;4.17;3.70;;;20.40;99.90;;;;;;5072454;28;20411;-68
2023/09/25 11:02:34;;;;;;;3.63;3.30;;;20.30;99.90;;;;;;5078105;28;20264;-70
2023/09/25 11:05:00;;;;;;;2.93;2.73;;;20.40;99.90;;;;;;5092063;28;20542;-69
2023/09/25 11:07:26;;;;;;;3.57;2.93;;;20.40;99.90;;;;;;5092135;28;20601;-70
2023/09/25 11:09:55;;;;;;;4.03;3.27;;;20.40;99.90;;;;;;5092112;28;20533;-70
2023/09/25 11:12:21;;;;;;;4.77;2.80;;;20.40;99.90;;;;;;5091894;28;20209;-69
2023/09/25 11:14:47;;;;;;;2.77;2.57;;;20.50;99.90;;;;;;5092698;28;20415;-72
2023/09/25 11:17:13;;;;;;;7.10;2.83;;;20.50;99.90;;;;;;5064058;28;20177;-71
2023/09/25 11:19:45;;;;;;;2.70;2.50;;;20.70;99.90;;;;;;5071799;28;20198;-70
2023/09/25 11:22:11;;;;;;;3.83;2.90;;;20.80;99.90;;;;;;5071772;28;20852;-70
2023/09/25 11:24:37;;;;;;;3.67;3.13;;;20.90;99.90;;;;;;5071929;28;20542;-69
2023/09/25 11:27:08;;;;;;;3.40;2.77;;;20.70;99.90;;;;;;5071350;28;20410;-69
2023/09/25 11:29:37;;;;;;;3.80;3.23;;;20.80;99.90;;;;;;5071709;28;20191;-69
2023/09/25 11:32:03;;;;;;;3.10;2.80;;;20.60;99.90;;;;;;5053498;28;20427;-70
2023/09/25 11:34:29;;;;;;;5.70;2.70;;;20.70;99.90;;;;;;5071687;28;20425;-69
2023/09/25 11:36:58;;;;;;;3.00;2.80;;;20.70;99.90;;;;;;5071407;28;20416;-70
2023/09/25 11:39:24;;;;;;;4.00;3.23;;;20.70;99.90;;;;;;5071400;28;20430;-69
2023/09/25 11:41:50;;;;;;;3.00;2.43;;;20.70;99.90;;;;;;5070656;28;20451;-70
2023/09/25 11:44:16;;;;;;;6.67;2.90;;;20.70;99.90;;;;;;5071489;28;20459;-70
2023/09/25 11:46:42;;;;;;;4.73;3.53;;;20.70;99.90;;;;;;5071490;28;20511;-67
2023/09/25 11:49:08;;;;;;;5.00;4.43;;;20.70;99.90;;;;;;5071381;28;20295;-69
2023/09/25 11:51:33;;;;;;;3.07;2.77;;;20.80;99.90;;;;;;5071524;28;20492;-70
2023/09/25 11:53:59;;;;;;;3.97;3.37;;;20.90;99.90;;;;;;5070148;28;20177;-69
2023/09/25 11:56:25;;;;;;;3.20;2.77;;;20.90;99.90;;;;;;5077700;28;20174;-70
2023/09/25 11:58:51;;;;;;;3.87;3.50;;;20.90;99.90;;;;;;5091654;28;20197;-69
2023/09/25 12:01:16;;;;;;;5.00;3.13;;;20.90;99.90;;;;;;5070511;28;20181;-67
2023/09/25 12:03:42;;;;;;;4.10;3.70;;;21.00;99.90;;;;;;5071274;28;20193;-68
2023/09/25 12:06:08;;;;;;;4.93;3.10;;;21.10;99.90;;;;;;5071361;28;20242;-71
2023/09/25 12:08:33;;;;;;;3.30;3.00;;;21.00;99.90;;;;;;5071658;28;20594;-69
2023/09/25 12:11:00;;;;;;;2.73;2.47;;;20.80;99.90;;;;;;5071361;28;20412;-72
2023/09/25 12:13:26;;;;;;;3.83;3.20;;;20.90;99.90;;;;;;5071652;28;20174;-69
2023/09/25 12:15:51;;;;;;;2.90;2.70;;;20.90;99.90;;;;;;5071357;28;20478;-69
2023/09/25 12:18:17;;;;;;;4.70;2.80;;;21.10;99.90;;;;;;5071079;28;20204;-68
2023/09/25 12:20:43;;;;;;;6.00;3.03;;;21.00;99.90;;;;;;5071597;28;20170;-71
2023/09/25 12:23:09;;;;;;;7.03;3.03;;;21.10;99.90;;;;;;5070895;28;20436;-71
2023/09/25 12:25:36;;;;;;;3.10;2.80;;;21.20;99.90;;;;;;5071285;28;20435;-69
2023/09/25 12:28:02;;;;;;;6.10;2.73;;;21.10;99.90;;;;;;5052939;28;20190;-70
2023/09/25 12:30:28;;;;;;;3.40;3.10;;;21.10;99.90;;;;;;5071272;28;20414;-69
2023/09/25 12:32:53;;;;;;;4.93;4.40;;;21.20;99.90;;;;;;5070936;28;20429;-68
2023/09/25 12:35:20;;;;;;;4.00;3.50;;;21.20;99.90;;;;;;5071505;28;20180;-68
2023/09/25 12:37:47;;;;;;;4.77;3.73;;;21.00;99.90;;;;;;5071135;28;20171;-68
2023/09/25 12:40:15;;;;;;;7.43;5.13;;;21.00;99.90;;;;;;5071227;28;20462;-69
2023/09/25 12:42:42;;;;;;;5.67;4.67;;;21.20;99.90;;;;;;5070951;28;20800;-69